createdAt,value
2018-11-05T00:00:39.320Z,6.87
2018-11-05T00:03:10.548Z,6.84
2018-11-05T00:05:41.795Z,6.75
2018-11-05T00:08:12.903Z,6.69
2018-11-05T00:10:44.122Z,6.59
2018-11-05T00:13:15.248Z,6.58
2018-11-05T00:15:49.539Z,6.61
2018-11-05T00:18:20.962Z,6.55
2018-11-05T00:20:52.199Z,6.44
2018-11-05T00:23:23.512Z,6.36
2018-11-05T00:25:54.763Z,6.31
2018-11-05T00:28:25.925Z,6.35
2018-11-05T00:31:00.240Z,6.39
2018-11-05T00:33:31.448Z,6.43
2018-11-05T00:36:02.646Z,6.40
2018-11-05T00:38:34.147Z,6.40
2018-11-05T00:41:05.617Z,6.43
2018-11-05T00:43:37.175Z,6.35
2018-11-05T00:46:08.936Z,6.33
2018-11-05T00:48:40.119Z,6.20
2018-11-05T00:51:14.043Z,6.22
2018-11-05T00:53:45.484Z,6.30
2018-11-05T00:56:16.646Z,6.40
2018-11-05T00:58:47.830Z,6.38
2018-11-05T01:01:19.408Z,6.34
2018-11-05T01:03:50.941Z,6.33
2018-11-05T01:06:22.110Z,6.23
2018-11-05T01:08:53.241Z,6.24
2018-11-05T01:11:24.703Z,6.28
2018-11-05T01:13:58.012Z,6.15
2018-11-05T01:16:29.387Z,6.08
2018-11-05T01:19:06.680Z,6.08
2018-11-05T01:21:37.972Z,6.02
2018-11-05T01:24:09.276Z,6.04
2018-11-05T01:26:40.566Z,6.17
2018-11-05T01:29:12.074Z,6.24
2018-11-05T01:31:43.182Z,6.26
2018-11-05T01:34:14.475Z,6.19
2018-11-05T01:36:45.616Z,6.19
2018-11-05T01:39:16.851Z,6.22
2018-11-05T01:41:48.323Z,6.13
2018-11-05T01:44:21.973Z,6.03
2018-11-05T01:46:53.678Z,5.92
2018-11-05T01:49:25.246Z,5.73
2018-11-05T01:51:56.537Z,5.74
2018-11-05T01:54:28.524Z,5.78
2018-11-05T01:57:00.002Z,5.76
2018-11-05T01:59:31.206Z,5.71
2018-11-05T02:02:02.433Z,5.72
2018-11-05T02:04:33.939Z,5.82
2018-11-05T02:07:05.208Z,5.90
2018-11-05T02:09:36.303Z,5.88
2018-11-05T02:12:10.761Z,5.90
2018-11-05T02:14:41.905Z,5.90
2018-11-05T02:17:13.764Z,5.94
2018-11-05T02:19:45.295Z,5.90
2018-11-05T02:22:16.748Z,5.71
2018-11-05T02:24:47.977Z,5.59
2018-11-05T02:27:19.186Z,5.51
2018-11-05T02:29:50.564Z,5.48
2018-11-05T02:32:21.821Z,5.47
2018-11-05T02:34:53.171Z,5.49
2018-11-05T02:37:24.344Z,5.55
2018-11-05T02:39:55.575Z,5.63
2018-11-05T02:42:29.096Z,5.70
2018-11-05T02:45:00.316Z,5.78
2018-11-05T02:47:31.516Z,5.68
2018-11-05T02:50:02.861Z,5.52
2018-11-05T02:52:34.028Z,5.41
2018-11-05T02:55:05.465Z,5.27
2018-11-05T02:57:36.994Z,5.24
2018-11-05T03:00:20.269Z,5.30
2018-11-05T03:02:51.386Z,5.36
2018-11-05T03:05:22.657Z,5.29
2018-11-05T03:07:53.888Z,5.17
2018-11-05T03:10:25.097Z,5.12
2018-11-05T03:12:56.325Z,5.15
2018-11-05T03:15:27.818Z,5.18
2018-11-05T03:17:59.066Z,5.26
2018-11-05T03:20:31.229Z,5.36
2018-11-05T03:23:02.404Z,5.47
2018-11-05T03:25:33.580Z,5.53
2018-11-05T03:28:05.081Z,5.57
2018-11-05T03:30:36.107Z,5.57
2018-11-05T03:33:07.370Z,5.53
2018-11-05T03:35:38.644Z,5.53
2018-11-05T03:38:09.781Z,5.52
2018-11-05T03:40:40.933Z,5.53
2018-11-05T03:43:12.074Z,5.47
2018-11-05T03:45:43.302Z,5.48
2018-11-05T03:48:16.093Z,5.55
2018-11-05T03:50:45.672Z,5.58
2018-11-05T03:53:16.880Z,5.44
2018-11-05T03:55:48.186Z,5.44
2018-11-05T03:58:19.566Z,5.46
2018-11-05T04:00:50.726Z,5.48
2018-11-05T04:03:22.018Z,5.47
2018-11-05T04:05:53.253Z,5.47
2018-11-05T04:08:24.469Z,5.36
2018-11-05T04:10:55.740Z,5.36
2018-11-05T04:13:26.960Z,5.39
2018-11-05T04:15:58.221Z,5.44
2018-11-05T04:18:29.454Z,5.35
2018-11-05T04:21:00.568Z,5.28
2018-11-05T04:23:32.067Z,5.32
2018-11-05T04:26:03.247Z,5.42
2018-11-05T04:28:34.429Z,5.53
2018-11-05T04:31:08.491Z,5.60
2018-11-05T04:33:40.037Z,5.66
2018-11-05T04:36:11.607Z,5.72
2018-11-05T04:38:43.175Z,5.73
2018-11-05T04:41:14.286Z,5.63
2018-11-05T04:46:16.906Z,5.63
2018-11-05T04:48:48.288Z,5.68
2018-11-05T04:51:19.550Z,5.34
2018-11-05T04:53:50.655Z,5.71
2018-11-05T04:56:22.192Z,5.71
2018-11-05T04:58:53.463Z,5.67
2018-11-05T05:01:24.669Z,5.67
2018-11-05T05:03:55.845Z,5.69
2018-11-05T05:06:27.505Z,5.74
2018-11-05T05:08:58.670Z,5.74
2018-11-05T05:11:30.198Z,5.77
2018-11-05T05:14:01.348Z,5.82
2018-11-05T05:16:32.617Z,5.91
2018-11-05T05:19:04.203Z,5.93
2018-11-05T05:21:35.388Z,5.82
2018-11-05T05:24:06.632Z,5.76
2018-11-05T05:26:38.037Z,5.76
2018-11-05T05:29:09.620Z,5.74
2018-11-05T05:31:40.916Z,5.71
2018-11-05T05:34:12.094Z,5.70
2018-11-05T05:36:43.647Z,5.74
2018-11-05T05:39:15.093Z,5.77
2018-11-05T05:41:46.581Z,5.42
2018-11-05T05:44:20.097Z,5.69
2018-11-05T05:46:51.294Z,5.64
2018-11-05T05:49:22.464Z,5.62
2018-11-05T05:51:53.745Z,5.65
2018-11-05T05:54:24.938Z,5.67
2018-11-05T05:56:56.216Z,5.61
2018-11-05T05:59:28.500Z,5.58
2018-11-05T06:01:59.839Z,5.58
2018-11-05T06:04:31.243Z,5.51
2018-11-05T06:07:02.402Z,5.52
2018-11-05T06:09:33.851Z,5.49
2018-11-05T06:12:05.146Z,5.43
2018-11-05T06:14:36.327Z,5.39
2018-11-05T06:17:07.743Z,5.43
2018-11-05T06:19:39.049Z,5.48
2018-11-05T06:22:10.488Z,5.50
2018-11-05T06:24:41.776Z,5.51
2018-11-05T06:27:13.023Z,5.53
2018-11-05T06:29:49.980Z,5.54
2018-11-05T06:32:21.298Z,5.54
2018-11-05T06:34:52.609Z,5.52
2018-11-05T06:37:23.863Z,5.53
2018-11-05T06:39:55.029Z,5.54
2018-11-05T06:42:26.315Z,5.58
2018-11-05T06:44:57.741Z,5.56
2018-11-05T06:47:28.948Z,5.60
2018-11-05T06:50:03.414Z,5.61
2018-11-05T06:52:34.537Z,5.63
2018-11-05T06:55:06.081Z,5.63
2018-11-05T06:57:37.316Z,5.68
2018-11-05T07:00:24.177Z,5.70
2018-11-05T07:02:55.624Z,5.69
2018-11-05T07:05:27.309Z,5.68
2018-11-05T07:07:59.334Z,5.71
2018-11-05T07:10:30.667Z,5.77
2018-11-05T07:13:02.334Z,5.75
2018-11-05T07:15:33.646Z,5.76
2018-11-05T07:18:05.121Z,5.77
2018-11-05T07:20:36.427Z,5.75
2018-11-05T07:23:07.851Z,5.67
2018-11-05T07:25:39.017Z,5.73
2018-11-05T07:28:10.414Z,5.76
2018-11-05T07:30:42.113Z,5.84
2018-11-05T07:33:13.318Z,5.89
2018-11-05T07:35:44.536Z,5.90
2018-11-05T07:38:15.812Z,5.81
2018-11-05T07:40:47.593Z,5.77
2018-11-05T07:43:21.056Z,5.81
2018-11-05T07:45:53.459Z,5.92
2018-11-05T07:48:23.457Z,6.01
2018-11-05T07:50:54.911Z,6.08
2018-11-05T07:53:25.937Z,6.20
2018-11-05T07:55:57.971Z,6.35
2018-11-05T07:58:29.518Z,6.43
2018-11-05T08:01:01.020Z,6.49
2018-11-05T08:03:32.331Z,6.65
2018-11-05T08:06:04.258Z,6.77
2018-11-05T08:08:35.545Z,6.85
2018-11-05T08:11:06.994Z,6.96
2018-11-05T08:13:38.050Z,7.02
2018-11-05T08:16:09.408Z,7.10
2018-11-05T08:18:43.170Z,7.11
2018-11-05T08:21:14.551Z,7.18
2018-11-05T08:23:49.553Z,7.22
2018-11-05T08:26:20.772Z,7.20
2018-11-05T08:28:52.013Z,7.21
2018-11-05T08:31:23.286Z,7.29
2018-11-05T08:33:54.625Z,7.38
2018-11-05T08:36:25.791Z,7.45
2018-11-05T08:38:57.287Z,7.54
2018-11-05T08:41:28.744Z,7.62
2018-11-05T08:43:59.833Z,7.68
2018-11-05T08:46:31.203Z,7.72
2018-11-05T08:49:02.548Z,7.81
2018-11-05T08:51:34.156Z,7.85
2018-11-05T08:54:05.398Z,7.97
2018-11-05T08:56:36.574Z,8.02
2018-11-05T08:59:08.132Z,8.14
2018-11-05T09:01:40.381Z,8.22
2018-11-05T09:04:15.050Z,8.29
2018-11-05T09:06:46.264Z,8.39
2018-11-05T09:09:18.066Z,8.49
2018-11-05T09:11:49.688Z,8.56
2018-11-05T09:14:20.940Z,8.61
2018-11-05T09:16:52.434Z,8.61
2018-11-05T09:19:23.657Z,8.67
2018-11-05T09:21:54.793Z,8.75
2018-11-05T09:24:26.428Z,8.84
2018-11-05T09:26:58.149Z,8.90
2018-11-05T09:29:29.556Z,8.94
2018-11-05T09:32:00.997Z,9.01
2018-11-05T09:34:32.351Z,9.08
2018-11-05T09:37:03.661Z,9.17
2018-11-05T09:39:35.739Z,9.25
2018-11-05T09:42:07.246Z,9.33
2018-11-05T09:44:38.380Z,9.44
2018-11-05T09:47:09.668Z,9.56
2018-11-05T09:49:41.048Z,9.67
2018-11-05T09:52:12.543Z,9.78
2018-11-05T09:54:43.849Z,9.86
2018-11-05T09:57:15.745Z,9.95
2018-11-05T09:59:47.120Z,10.03
2018-11-05T10:02:18.523Z,10.10
2018-11-05T10:04:50.359Z,10.20
2018-11-05T10:07:21.405Z,10.26
2018-11-05T10:09:55.254Z,10.35
2018-11-05T10:12:26.816Z,10.42
2018-11-05T10:14:58.172Z,10.47
2018-11-05T10:17:29.682Z,10.52
2018-11-05T10:20:01.063Z,10.53
2018-11-05T10:22:32.460Z,10.62
2018-11-05T10:25:03.973Z,10.65
2018-11-05T10:27:35.019Z,10.74
2018-11-05T10:30:07.923Z,10.77
2018-11-05T10:32:39.531Z,10.89
2018-11-05T10:35:10.911Z,10.89
2018-11-05T10:37:42.305Z,10.93
2018-11-05T10:40:23.082Z,11.00
2018-11-05T10:42:54.506Z,11.07
2018-11-05T10:45:25.749Z,11.14
2018-11-05T10:47:57.057Z,11.25
2018-11-05T10:50:28.758Z,11.26
2018-11-05T10:52:59.795Z,11.31
2018-11-05T10:55:31.015Z,11.31
2018-11-05T10:58:02.704Z,11.38
2018-11-05T11:00:50.871Z,11.43
2018-11-05T11:03:22.161Z,11.48
2018-11-05T11:05:53.337Z,11.57
2018-11-05T11:08:24.631Z,11.62
2018-11-05T11:10:55.947Z,11.69
2018-11-05T11:13:27.776Z,11.70
2018-11-05T11:15:59.066Z,11.74
2018-11-05T11:18:30.641Z,11.78
2018-11-05T11:21:01.916Z,11.79
2018-11-05T11:23:33.206Z,11.86
2018-11-05T11:26:04.505Z,12.01
2018-11-05T11:28:35.816Z,12.02
2018-11-05T11:31:08.001Z,12.02
2018-11-05T11:33:39.565Z,11.99
2018-11-05T11:36:10.924Z,12.00
2018-11-05T11:38:42.378Z,12.00
2018-11-05T11:41:13.768Z,12.06
2018-11-05T11:43:45.733Z,12.14
2018-11-05T11:46:16.906Z,12.20
2018-11-05T11:48:48.620Z,12.32
2018-11-05T11:51:19.825Z,12.36
2018-11-05T11:53:51.600Z,12.33
2018-11-05T11:56:23.477Z,12.33
2018-11-05T11:58:54.838Z,12.32
2018-11-05T12:01:26.795Z,12.37
2018-11-05T12:03:58.742Z,12.42
2018-11-05T12:06:30.004Z,12.49
2018-11-05T12:09:01.411Z,12.54
2018-11-05T12:11:32.861Z,12.58
2018-11-05T12:14:04.156Z,12.66
2018-11-05T12:16:35.663Z,12.68
2018-11-05T12:19:09.146Z,12.71
2018-11-05T12:21:41.021Z,12.69
2018-11-05T12:24:12.335Z,12.67
2018-11-05T12:26:43.560Z,12.66
2018-11-05T12:29:14.746Z,12.65
2018-11-05T12:31:46.127Z,12.68
2018-11-05T12:34:17.166Z,12.72
2018-11-05T12:36:48.651Z,12.78
2018-11-05T12:39:19.725Z,12.78
2018-11-05T12:41:50.985Z,12.81
2018-11-05T12:44:22.013Z,12.78
2018-11-05T12:46:53.379Z,12.78
2018-11-05T12:49:29.873Z,12.83
2018-11-05T12:52:03.825Z,12.88
2018-11-05T12:54:34.935Z,12.91
2018-11-05T12:57:06.675Z,12.95
2018-11-05T12:59:37.971Z,12.92
2018-11-05T13:02:09.279Z,12.96
2018-11-05T13:04:40.681Z,12.99
2018-11-05T13:07:52.186Z,12.98
2018-11-05T13:10:23.415Z,12.99
2018-11-05T13:12:54.683Z,13.01
2018-11-05T13:15:26.002Z,13.03
2018-11-05T13:17:59.504Z,13.09
2018-11-05T13:20:30.751Z,13.12
2018-11-05T13:23:04.535Z,13.14
2018-11-05T13:25:35.714Z,13.13
2018-11-05T13:28:06.835Z,13.18
2018-11-05T13:30:38.192Z,13.17
2018-11-05T13:33:09.438Z,13.18
2018-11-05T13:35:40.746Z,13.19
2018-11-05T13:38:12.619Z,13.20
2018-11-05T13:40:43.431Z,13.18
2018-11-05T13:43:14.939Z,13.18
2018-11-05T13:45:46.399Z,13.18
2018-11-05T13:48:18.156Z,13.17
2018-11-05T13:50:48.938Z,13.19
2018-11-05T13:53:23.043Z,13.19
2018-11-05T13:55:58.047Z,13.21
2018-11-05T13:58:28.412Z,13.21
2018-11-05T14:01:02.625Z,13.20
2018-11-05T14:03:34.168Z,13.24
2018-11-05T14:06:05.425Z,13.27
2018-11-05T14:08:41.845Z,13.29
2018-11-05T14:11:13.040Z,13.29
2018-11-05T14:13:44.128Z,13.27
2018-11-05T14:16:15.311Z,13.27
2018-11-05T14:18:47.517Z,13.24
2018-11-05T14:21:17.624Z,13.23
2018-11-05T14:23:51.036Z,13.23
2018-11-05T14:26:22.247Z,13.27
2018-11-05T14:28:54.132Z,13.24
2018-11-05T14:31:27.454Z,13.23
2018-11-05T14:33:58.584Z,13.23
2018-11-05T14:36:29.683Z,13.21
2018-11-05T14:39:00.761Z,13.20
2018-11-05T14:41:34.242Z,13.17
2018-11-05T14:44:05.480Z,13.13
2018-11-05T14:46:36.606Z,13.12
2018-11-05T14:49:08.001Z,13.04
2018-11-05T14:51:39.833Z,13.04
2018-11-05T14:54:14.144Z,13.04
2018-11-05T14:56:48.073Z,13.03
2018-11-05T14:59:19.295Z,13.05
2018-11-05T15:02:08.934Z,13.03
2018-11-05T15:04:42.481Z,13.03
2018-11-05T15:07:13.942Z,13.00
2018-11-05T15:09:54.846Z,13.01
2018-11-05T15:12:26.063Z,13.01
2018-11-05T15:14:57.214Z,13.01
2018-11-05T15:17:29.571Z,12.97
2018-11-05T15:20:01.157Z,12.97
2018-11-05T15:22:31.791Z,12.93
2018-11-05T15:25:02.981Z,12.94
2018-11-05T15:27:36.266Z,12.89
2018-11-05T15:30:27.719Z,12.89
2018-11-05T15:32:59.354Z,12.88
2018-11-05T15:35:30.722Z,12.83
2018-11-05T15:38:01.905Z,12.82
2018-11-05T15:40:36.057Z,12.82
2018-11-05T15:43:07.715Z,12.84
2018-11-05T15:45:39.844Z,12.80
2018-11-05T15:48:11.220Z,12.71
2018-11-05T15:50:42.608Z,12.66
2018-11-05T15:53:14.284Z,12.64
2018-11-05T15:55:47.767Z,12.66
2018-11-05T15:58:22.167Z,12.68
2018-11-05T16:00:53.740Z,12.71
2018-11-05T16:03:26.310Z,12.68
2018-11-05T16:05:56.482Z,12.59
2018-11-05T16:08:28.182Z,12.45
2018-11-05T16:10:59.259Z,12.30
2018-11-05T16:13:30.524Z,12.31
2018-11-05T16:16:01.675Z,12.33
2018-11-05T16:18:32.892Z,12.28
2018-11-05T16:21:05.790Z,12.26
2018-11-05T16:23:39.960Z,12.26
2018-11-05T16:26:11.943Z,12.17
2018-11-05T16:28:43.181Z,12.21
2018-11-05T16:31:17.375Z,12.23
2018-11-05T16:33:49.191Z,12.26
2018-11-05T16:36:20.941Z,12.22
2018-11-05T16:39:00.212Z,12.23
2018-11-05T16:41:31.376Z,12.21
2018-11-05T16:44:04.628Z,12.16
2018-11-05T16:46:38.756Z,12.08
2018-11-05T16:49:09.934Z,11.97
2018-11-05T16:51:41.066Z,11.94
2018-11-05T16:54:12.312Z,11.95
2018-11-05T16:56:45.157Z,11.99
2018-11-05T16:59:32.071Z,11.96
2018-11-05T17:02:03.863Z,11.87
2018-11-05T17:04:54.105Z,11.72
2018-11-05T17:07:28.305Z,11.69
2018-11-05T17:10:02.291Z,11.64
2018-11-05T17:12:33.604Z,11.67
2018-11-05T17:15:04.917Z,11.72
2018-11-05T17:17:36.101Z,11.74
2018-11-05T17:20:10.086Z,11.79
2018-11-05T17:22:42.180Z,11.81
2018-11-05T17:25:14.142Z,11.82
2018-11-05T17:27:51.220Z,11.84
2018-11-05T17:30:26.254Z,11.84
2018-11-05T17:32:59.182Z,11.85
2018-11-05T17:35:32.716Z,11.79
2018-11-05T17:38:04.003Z,11.68
2018-11-05T17:40:37.977Z,11.62
2018-11-05T17:43:09.677Z,11.51
2018-11-05T17:45:41.027Z,11.54
2018-11-05T17:48:12.218Z,11.53
2018-11-05T17:50:57.130Z,11.49
2018-11-05T17:53:28.122Z,11.44
2018-11-05T17:56:01.025Z,11.42
2018-11-05T17:58:32.322Z,11.48
2018-11-05T18:01:03.444Z,11.43
2018-11-05T18:03:35.999Z,11.35
2018-11-05T18:06:08.244Z,11.28
2018-11-05T18:08:40.114Z,11.29
2018-11-05T18:11:11.322Z,11.33
2018-11-05T18:13:42.590Z,11.33
2018-11-05T18:16:13.715Z,11.26
2018-11-05T18:18:50.503Z,11.33
2018-11-05T18:21:24.488Z,11.38
2018-11-05T18:23:58.469Z,11.38
2018-11-05T18:26:31.344Z,11.36
2018-11-05T18:29:04.274Z,11.36
2018-11-05T18:31:36.571Z,11.29
2018-11-05T18:34:08.081Z,11.30
2018-11-05T18:36:39.657Z,11.30
2018-11-05T18:39:14.123Z,11.20
2018-11-05T18:41:47.777Z,11.12
2018-11-05T18:44:19.024Z,11.08
2018-11-05T18:46:50.494Z,11.08
2018-11-05T18:49:23.979Z,11.08
2018-11-05T18:52:18.900Z,11.11
2018-11-05T18:54:50.122Z,11.08
2018-11-05T18:57:21.622Z,11.08
2018-11-05T18:59:56.350Z,11.06
2018-11-05T19:02:36.488Z,11.08
2018-11-05T19:05:09.567Z,11.10
2018-11-05T19:07:40.784Z,11.01
2018-11-05T19:10:12.345Z,10.95
2018-11-05T19:12:47.641Z,10.89
2018-11-05T19:15:35.850Z,10.93
2018-11-05T19:18:10.514Z,10.96
2018-11-05T19:20:46.215Z,10.91
2018-11-05T19:23:23.790Z,10.91
2018-11-05T19:25:56.812Z,10.93
2018-11-05T19:28:35.975Z,10.78
2018-11-05T19:31:08.859Z,10.94
2018-11-05T19:33:44.656Z,10.92
2018-11-05T19:36:18.406Z,10.87
2018-11-05T19:38:57.104Z,10.86
2018-11-05T19:41:32.786Z,10.81
2018-11-05T19:44:07.094Z,10.79
2018-11-05T19:46:42.941Z,10.81
2018-11-05T19:49:14.393Z,10.83
2018-11-05T19:51:54.773Z,10.86
2018-11-05T19:54:37.377Z,10.83
2018-11-05T19:57:13.508Z,10.76
2018-11-05T19:59:49.301Z,10.78
2018-11-05T20:02:30.673Z,10.79
2018-11-05T20:05:04.278Z,10.73
2018-11-05T20:07:37.819Z,10.63
2018-11-05T20:10:14.609Z,10.54
2018-11-05T20:12:53.047Z,10.50
2018-11-05T20:15:29.675Z,10.47
2018-11-05T20:18:06.345Z,10.42
2018-11-05T20:20:37.900Z,10.45
2018-11-05T20:23:11.355Z,10.50
2018-11-05T20:25:45.316Z,10.49
2018-11-05T20:28:20.779Z,10.53
2018-11-05T20:30:55.790Z,10.53
2018-11-05T20:33:28.884Z,10.53
2018-11-05T20:36:03.245Z,10.45
2018-11-05T20:38:36.955Z,10.40
2018-11-05T20:41:12.924Z,10.39
2018-11-05T20:43:49.241Z,10.39
2018-11-05T20:46:23.118Z,10.38
2018-11-05T20:48:57.622Z,10.36
2018-11-05T20:51:32.138Z,10.35
2018-11-05T20:54:05.669Z,10.31
2018-11-05T20:56:39.653Z,10.31
2018-11-05T20:59:13.256Z,10.28
2018-11-05T21:01:47.747Z,10.15
2018-11-05T21:04:21.084Z,10.18
2018-11-05T21:06:54.456Z,10.15
2018-11-05T21:09:28.097Z,10.18
2018-11-05T21:12:03.043Z,10.17
2018-11-05T21:14:37.382Z,10.06
2018-11-05T21:17:10.798Z,10.06
2018-11-05T21:19:48.087Z,10.06
2018-11-05T21:22:21.510Z,10.04
2018-11-05T21:24:54.662Z,10.01
2018-11-05T21:27:28.421Z,10.03
2018-11-05T21:30:02.072Z,10.11
2018-11-05T21:32:37.686Z,10.08
2018-11-05T21:35:29.449Z,10.00
2018-11-05T21:38:05.062Z,9.99
2018-11-05T21:40:38.643Z,10.01
2018-11-05T21:43:12.564Z,10.03
2018-11-05T21:45:45.950Z,10.02
2018-11-05T21:48:35.566Z,10.05
2018-11-05T21:51:08.443Z,10.07
2018-11-05T21:53:41.687Z,10.08
2018-11-05T21:56:13.862Z,10.04
2018-11-05T21:58:46.233Z,10.01
2018-11-05T22:01:19.691Z,9.99
2018-11-05T22:03:54.265Z,10.01
2018-11-05T22:06:28.265Z,10.03
2018-11-05T22:09:03.622Z,10.04
2018-11-05T22:11:37.088Z,10.09
2018-11-05T22:14:10.624Z,10.10
2018-11-05T22:16:50.027Z,10.11
2018-11-05T22:19:23.250Z,10.08
2018-11-05T22:21:57.617Z,10.08
2018-11-05T22:24:38.522Z,9.99
2018-11-05T22:27:11.872Z,9.92
2018-11-05T22:29:45.843Z,9.84
2018-11-05T22:32:21.245Z,9.85
2018-11-05T22:35:02.859Z,9.89
2018-11-05T22:37:37.397Z,9.94
2018-11-05T22:40:17.205Z,9.93
2018-11-05T22:44:10.857Z,10.13
2018-11-05T22:46:44.561Z,9.90
2018-11-05T22:49:18.247Z,9.79
2018-11-05T22:51:51.718Z,9.77
2018-11-05T22:54:25.683Z,9.83
2018-11-05T22:56:59.074Z,9.81
2018-11-05T22:59:32.335Z,9.75
2018-11-05T23:02:06.393Z,9.70
2018-11-05T23:04:40.278Z,9.71
2018-11-05T23:07:13.329Z,9.75
2018-11-05T23:09:47.390Z,9.77
2018-11-05T23:12:22.231Z,9.76
2018-11-05T23:14:57.354Z,9.74
2018-11-05T23:17:32.783Z,9.74
2018-11-05T23:20:07.003Z,9.75
2018-11-05T23:22:41.795Z,9.70
2018-11-05T23:25:16.148Z,9.71
2018-11-05T23:27:50.635Z,9.71
2018-11-05T23:30:24.238Z,9.66
2018-11-05T23:32:59.370Z,9.63
2018-11-05T23:35:33.018Z,9.60
2018-11-05T23:38:08.393Z,9.57
2018-11-05T23:40:41.276Z,9.57
2018-11-05T23:43:15.621Z,9.58
2018-11-05T23:45:49.484Z,9.61
2018-11-05T23:48:23.511Z,9.59
2018-11-05T23:50:58.263Z,9.63
2018-11-05T23:53:32.204Z,9.66
2018-11-05T23:56:06.202Z,9.63
2018-11-05T23:58:41.792Z,9.59
